Flight Track Log - Related Links

Times and Time Zones

All times are in EST time to prevent confusion due to time zone crossing. See the N1078S flight status page for this flight to view local times or setup timezone preferences in your user account.

Time Position Orientation Groundspeed Altitude Reporting Facility
EST Latitude Longitude Course Direction KTS MPH feet Rate Location/Type
Sun 09:29:31 AM 36.7031 -78.0244 37° Northeast 185 213 7,500  Level Washington Center
Sun 09:30:29 AM 36.7456 -77.9844 37° Northeast 185 213 7,500  Level Washington Center
Sun 09:31:31 AM 36.7861 -77.9442 38° Northeast 185 213 7,500  Level Washington Center
Sun 09:32:29 AM 36.8286 -77.9014 39° Northeast 185 213 7,500  Level Washington Center
Sun 09:33:30 AM 36.8692 -77.8583 40° Northeast 185 213 7,500  Level Washington Center
Sun 09:34:30 AM 36.9094 -77.8156 40° Northeast 185 213 7,500 50 Level Washington Center
Sun 09:35:31 AM 36.9500 -77.7697 42° Northeast 185 213 7,600  Climbing Washington Center
Sun 09:36:31 AM 36.9903 -77.7294 39° Northeast 185 213 7,500 -51 Descending Washington Center
Sun 09:37:29 AM 37.0328 -77.6914 36° Northeast 185 213 7,500  Level Washington Center
Sun 09:38:29 AM 37.0731 -77.6508 39° Northeast 185 213 7,500  Level Washington Center
Sun 09:39:30 AM 37.1156 -77.6078 39° Northeast 185 213 7,500  Level Washington Center
Sun 09:41:08 AM 37.1833 -77.5333 41° Northeast 184 212 7,500  Level Potomac TRACON
Sun 09:42:07 AM 37.2333 -77.5000 28° Northeast 191 220 7,500 -53 Level Potomac TRACON
Sun 09:43:02 AM 37.2667 -77.4667 39° Northeast 187 215 7,400 -50 Descending Potomac TRACON
Sun 09:44:08 AM 37.3167 -77.4167 38° Northeast 189 217 7,400 50 Level Potomac TRACON
Sun 09:45:02 AM 37.3500 -77.3833 38° Northeast 185 213 7,500  Climbing Potomac TRACON
Sun 09:46:02 AM 37.3833 -77.3333 50° Northeast 187 215 7,400 -53 Descending Potomac TRACON
Sun 09:46:56 AM 37.4167 -77.3000 38° Northeast 188 216 7,400  Level Potomac TRACON
Sun 09:47:56 AM 37.4667 -77.2667 28° Northeast 191 220 7,400  Level Potomac TRACON
Sun 09:48:56 AM 37.5000 -77.2167 50° Northeast 188 216 7,400 50 Level Potomac TRACON
Sun 09:49:56 AM 37.5500 -77.1833 28° Northeast 185 213 7,500  Climbing Potomac TRACON
Sun 09:50:56 AM 37.5833 -77.1333 50° Northeast 187 215 7,400 -53 Descending Potomac TRACON
Sun 09:51:50 AM 37.6167 -77.1000 38° Northeast 184 212 7,400  Level Potomac TRACON
Sun 09:52:44 AM 37.6500 -77.0667 38° Northeast 185 213 7,400 53 Level Potomac TRACON
Sun 09:53:44 AM 37.7000 -77.0167 38° Northeast 189 217 7,500  Climbing Potomac TRACON
Sun 09:54:18 AM 37.7167 -76.9964 44° Northeast 187 215 7,400 -64 Descending Washington Center
Sun 09:55:18 AM 37.7544 -76.9603 37° Northeast 206 237 7,400  Level Washington Center
Sun 09:56:17 AM 37.7947 -76.9189 39° Northeast 201 231 7,400 50 Level Washington Center
Sun 09:57:17 AM 37.8347 -76.8750 41° Northeast 190 219 7,500 50 Climbing Washington Center
Sun 09:58:18 AM 37.8747 -76.8333 39° Northeast 190 219 7,500 -50 Level Washington Center
Sun 09:59:18 AM 37.9150 -76.7919 39° Northeast 185 213 7,400  Descending Washington Center
Sun 10:00:19 AM 37.9528 -76.7506 41° Northeast 185 213 7,500 49 Climbing Washington Center
Sun 10:01:20 AM 37.9992 -76.7036 39° Northeast 185 213 7,500  Level Washington Center
Sun 10:02:17 AM 38.0392 -76.6622 39° Northeast 185 213 7,500 51 Level Washington Center
Sun 10:03:18 AM 38.0811 -76.6206 38° Northeast 185 213 7,600  Climbing Washington Center
Sun 10:04:19 AM 38.1233 -76.5764 39° Northeast 185 213 7,500 -50 Descending Washington Center
Sun 10:05:17 AM 38.1633 -76.5344 39° Northeast 185 213 7,500  Level Washington Center
Sun 10:06:18 AM 38.2011 -76.4900 43° Northeast 185 213 7,500  Level Washington Center
Sun 10:07:18 AM 38.2431 -76.4483 38° Northeast 185 213 7,500  Level Washington Center
Sun 10:08:19 AM 38.2850 -76.4092 36° Northeast 185 213 7,500  Level Washington Center
Sun 10:09:19 AM 38.3228 -76.3750 35° Northeast 185 213 7,500  Level Washington Center
Sun 10:10:17 AM 38.3689 -76.3439 28° Northeast 180 207 7,500  Level Washington Center
Sun 10:11:18 AM 38.4108 -76.3097 33° Northeast 180 207 7,500  Level Washington Center
Sun 10:12:18 AM 38.4528 -76.2756 33° Northeast 180 207 7,500  Level Washington Center
Sun 10:13:19 AM 38.4989 -76.2389 32° Northeast 180 207 7,500  Level Washington Center
Sun 10:14:17 AM 38.5447 -76.2047 30° Northeast 185 213 7,500  Level Washington Center
Sun 10:15:17 AM 38.5972 -76.1575 35° Northeast 195 224 7,500  Level Washington Center
Sun 10:16:19 AM 38.6433 -76.1258 28° Northeast 195 224 7,500  Level Washington Center
Sun 10:17:19 AM 38.6892 -76.0889 32° Northeast 190 219 7,500  Level Washington Center
Sun 10:18:18 AM 38.7331 -76.0547 31° Northeast 190 219 7,500  Level Washington Center
Sun 10:19:18 AM 38.7769 -76.0150 35° Northeast 185 213 7,500  Level Washington Center
Sun 10:20:19 AM 38.8211 -75.9806 31° Northeast 185 213 7,500  Level Washington Center
Sun 10:21:17 AM 38.8647 -75.9489 29° Northeast 185 213 7,500  Level Washington Center
Sun 10:22:17 AM 38.9067 -75.9117 35° Northeast 185 213 7,500  Level Washington Center
Sun 10:23:18 AM 38.9506 -75.8825 27° Northeast 180 207 7,500  Level Washington Center
Sun 10:24:18 AM 38.9922 -75.8453 35° Northeast 180 207 7,500  Level Washington Center
Sun 10:25:19 AM 39.0381 -75.8133 28° Northeast 185 213 7,500  Level Washington Center
Sun 10:26:17 AM 39.0819 -75.7789 31° Northeast 185 213 7,500  Level Washington Center
Sun 10:27:18 AM 39.1217 -75.7442 34° Northeast 185 213 7,500  Level Washington Center
Sun 10:29:36 AM 39.2167 -75.6667 32° Northeast 188 216 7,500  Level Philadelphia TRACON
Sun 10:30:36 AM 39.2667 -75.6333 27° Northeast 188 216 7,500  Level Philadelphia TRACON
Sun 10:31:36 AM 39.3167 -75.5833 38° Northeast 187 215 7,500 53 Level Philadelphia TRACON
Sun 10:32:30 AM 39.3500 -75.5667 21° North 182 209 7,600  Climbing Philadelphia TRACON
Sun 10:33:37 AM 39.4000 -75.5167 38° Northeast 187 215 7,500 -190 Descending Philadelphia TRACON
Sun 10:34:36 AM 39.4500 -75.4833 27° Northeast 174 200 7,200 -252 Descending Philadelphia TRACON
Sun 10:35:36 AM 39.5000 -75.4833 360° North 174 200 7,000 -105 Descending Philadelphia TRACON
Sun 10:36:30 AM 39.5333 -75.4833 360° North 171 197 7,000 -209 Level Philadelphia TRACON
Sun 10:37:31 AM 39.5833 -75.4667 14° North 173 199 6,600 -545 Descending Philadelphia TRACON
Sun 10:38:31 AM 39.6333 -75.4667 360° North 176 203 5,900 -655 Descending Philadelphia TRACON
Sun 10:39:30 AM 39.6833 -75.4667 360° North 167 192 5,300 -605 Descending Philadelphia TRACON
Sun 10:40:30 AM 39.7167 -75.4667 360° North 155 178 4,700 -650 Descending Philadelphia TRACON
Sun 10:41:30 AM 39.7667 -75.4833 346° North 154 177 4,000 -600 Descending Philadelphia TRACON
Sun 10:42:30 AM 39.8000 -75.5000 339° North 155 178 3,500 -316 Descending Philadelphia TRACON
Sun 10:43:24 AM 39.8333 -75.5167 339° North 151 174 3,400 -48 Descending Philadelphia TRACON
Sun 10:44:36 AM 39.8833 -75.5333 346° North 158 182 3,400  Level Philadelphia TRACON
Sun 10:45:36 AM 39.9333 -75.5333 360° North 158 182 3,400 50 Level Philadelphia TRACON
Sun 10:46:36 AM 39.9667 -75.5000 37° Northeast 200 230 3,500  Climbing Philadelphia TRACON
Sun 10:47:36 AM 40.0000 -75.4500 49° Northeast 188 216 3,400 -50 Descending Philadelphia TRACON
Sun 10:48:36 AM 40.0333 -75.4000 49° Northeast 182 209 3,400 50 Level Philadelphia TRACON
Sun 10:49:36 AM 40.0667 -75.3667 37° Northeast 183 211 3,500  Climbing Philadelphia TRACON
Sun 10:50:36 AM 40.1167 -75.3167 37° Northeast 186 214 3,400 -48 Descending Philadelphia TRACON
Sun 10:51:42 AM 40.1500 -75.2500 57° Northeast 190 219 3,400  Level Philadelphia TRACON
Sun 10:52:25 AM 40.1833 -75.2167 37° Northeast 192 221 3,400 110 Level Philadelphia TRACON
Sun 10:53:31 AM 40.2167 -75.1667 49° Northeast 186 214 3,600 46 Climbing Philadelphia TRACON
Sun 10:54:36 AM 40.2500 -75.1167 49° Northeast 186 214 3,500 -48 Descending Philadelphia TRACON
Sun 10:55:36 AM 40.3000 -75.0667 37° Northeast 186 214 3,500  Level Philadelphia TRACON
Sun 10:56:19 AM 40.3167 -75.0333 57° Northeast 184 212 3,500  Level Philadelphia TRACON
Sun 10:59:10 AM 40.4167 -74.9000 57° Northeast 187 215 3,500 -25 Level New York TRACON
Sun 11:00:16 AM 40.4667 -74.8333 45° Northeast 190 219 3,400 -50 Descending New York TRACON
Sun 11:01:10 AM 40.5000 -74.8000 37° Northeast 186 214 3,400 -50 Level New York TRACON
Sun 11:02:16 AM 40.5333 -74.7500 49° Northeast 185 213 3,300 -200 Descending New York TRACON
Sun 11:03:10 AM 40.5833 -74.7167 27° Northeast 177 204 3,000 -250 Descending New York TRACON
Sun 11:04:16 AM 40.6167 -74.6667 49° Northeast 173 199 2,800 -95 Descending New York TRACON
Sun 11:05:16 AM 40.6500 -74.6333 37° Northeast 164 189 2,800  Level New York TRACON
Sun 11:06:16 AM 40.6833 -74.6000 37° Northeast 174 200 2,800 50 Level New York TRACON
Sun 11:07:16 AM 40.7167 -74.5500 49° Northeast 175 201 2,900 53 Climbing New York TRACON
Sun 11:08:10 AM 40.7667 -74.5167 27° Northeast 174 200 2,900  Level New York TRACON
Sun 11:09:10 AM 40.8000 -74.4833 37° Northeast 172 198 2,900 -200 Level New York TRACON
Sun 11:10:10 AM 40.8333 -74.4333 49° Northeast 179 206 2,500 -286 Descending New York TRACON
Sun 11:11:16 AM 40.8667 -74.3833 49° Northeast 164 189 2,300 -350 Descending New York TRACON
Sun 11:12:10 AM 40.8833 -74.3333 66° East 141 162 1,800 -400 Descending New York TRACON
Sun 11:14:16 AM 40.9000 -74.2333 78° East 118 136 1,100 -333 Descending New York TRACON

Login

Don't have an account? Register now (free) for customized features, flight alerts, and more!